Campiña-No se requiere un especial cuidado respecto a la situación meteorológica.   -   No hay avisos

Informes METAR

 

LEZL - Sevilla, Spain
Distancia de la estación: ENE 8km
Actualización: 18/04/2021 20:00
Despejado
Despejado
 Viento de ESE
Viento: ESE 2 km/h
Temperatura: 25°C
Rocío: 1°C
Humedad: 21%
Barómetro: 1018 hPa
Resumen: Despejado
Visibilidad: mayor de 10 km
2021/04/18 18:00 LEZL 181800Z 11001KT CAVOK 25/01 Q1018 NOSIG
LEMO - Morón, Spain
Distancia de la estación: SE 43km
Actualización: 18/04/2021 20:00
Despejado
Despejado
 Viento de variable
Viento: variable 4 km/h
Temperatura: 24°C
Rocío: 1°C
Humedad: 22%
Barómetro: 1018 hPa
Resumen: Despejado
Visibilidad: mayor de 10 km
2021/04/18 18:00 LEMO 181800Z VRB02KT CAVOK 24/01 Q1018 NOSIG
LEJR - Jeréz, Spain
Distancia de la estación: S 71km
Actualización: 18/04/2021 20:00
Despejado
Despejado
 Viento de NNO
Viento: NNO 13 km/h
Temperatura: 24°C
Rocío: 2°C
Humedad: 24%
Barómetro: 1018 hPa
Resumen: Despejado
Visibilidad: mayor de 10 km
2021/04/18 18:00 LEJR 181800Z 34007KT CAVOK 24/02 Q1018
 
LERT - Rota, Spain
Distancia de la estación: SSO 89km
Actualización: 18/04/2021 20:00
Despejado
Despejado
 Viento de O
Viento: O 19 km/h
Temperatura: 19°C
Rocío: 13°C
Humedad: 68%
Barómetro: 1019 hPa
Resumen: Despejado
Visibilidad: mayor de 10 km
2021/04/18 18:00 LERT 181800Z 27010KT CAVOK 19/13 Q1019 NOSIG
LEMG - Málaga, Spain
Distancia de la estación: ESE 157km
Actualización: 18/04/2021 20:00
Poco nuboso
Poco nuboso
 Viento de E
Viento: E 17 km/h
Temperatura: 18°C
Rocío: 15°C
Humedad: 83%
Barómetro: 1019 hPa
Nubes: Poco nuboso
Visibilidad: 10 km
Detalles de las nubes: Poco nuboso 457 m
2021/04/18 18:00 LEMG 181800Z 09009KT 9999 FEW015 18/15 Q1019 NOSIG
LEBA - Córdoba, Spain
Distancia de la estación: ENE 115km
Actualización: 18/04/2021 20:00
Despejado
Despejado
 Viento de SO
Viento: SO 7 km/h
Temperatura: 22°C
Rocío: 3°C
Humedad: 29%
Barómetro: 1018 hPa
Resumen: Despejado
Visibilidad: mayor de 10 km
2021/04/18 18:00 LEBA 181800Z 22004KT 170V260 CAVOK 22/03 Q1018
 
LEGR - Granada, Spain
Distancia de la estación: E 198km
Actualización: 18/04/2021 20:00
Despejado
Despejado
 Viento de NNO
Viento: NNO 13 km/h
Temperatura: 19°C
Rocío: -1°C
Humedad: 26%
Barómetro: 1019 hPa
Resumen: Despejado
Visibilidad: mayor de 10 km
2021/04/18 18:00 LEGR 181800Z 34007KT 310V010 CAVOK 19/M01 Q1019
LEAM - Almería, Spain
Distancia de la estación: E 326km
Actualización: 18/04/2021 20:00
Poco nuboso
Poco nuboso
 Viento de SSO
Viento: SSO 13 km/h
Temperatura: 18°C
Rocío: 13°C
Humedad: 73%
Barómetro: 1020 hPa
Nubes: Poco nuboso
Visibilidad: 10 km
Detalles de las nubes: Poco nuboso 762 m
2021/04/18 18:00 LEAM 181800Z 21007KT 9999 FEW025 18/13 Q1020
LEMD - Madrid/Barajas, Spain
Distancia de la estación: NNE 402km
Actualización: 18/04/2021 20:00
Despejado
Despejado
 Viento de S
Viento: S 9 km/h
Temperatura: 18°C
Rocío: 1°C
Humedad: 32%
Barómetro: 1019 hPa
Resumen: Despejado
Visibilidad: mayor de 10 km
2021/04/18 18:00 LEMD 181800Z 17005KT 130V210 CAVOK 18/01 Q1019 NOSIG
 
LEVD - Valladolid, Spain
Distancia de la estación: N 492km
Actualización: 18/04/2021 20:00
Despejado
Despejado
 Viento de OSO
Viento: OSO 13 km/h
Temperatura: 14°C
Rocío: 2°C
Humedad: 44%
Barómetro: 1021 hPa
Resumen: Despejado
Visibilidad: mayor de 10 km
2021/04/18 18:00 LEVD 181800Z 25007KT CAVOK 14/02 Q1021
LEBL - Barcelona, Spain
Distancia de la estación: NE 816km
Actualización: 18/04/2021 20:00
Despejado
Despejado
 Viento de SO
Viento: SO 24 km/h
Temperatura: 14°C
Rocío: 6°C
Humedad: 59%
Barómetro: 1019 hPa
Resumen: Despejado
Visibilidad: mayor de 10 km
2021/04/18 18:00 LEBL 181800Z 22013KT CAVOK 14/06 Q1019 NOSIG
LEVC - Valencia, Spain
Distancia de la estación: ENE 535km
Actualización: 18/04/2021 20:00
Despejado
Despejado
 Viento de SE
Viento: SE 13 km/h
Temperatura: 15°C
Rocío: 5°C
Humedad: 51%
Barómetro: 1020 hPa
Resumen: Despejado
Visibilidad: mayor de 10 km
2021/04/18 18:00 LEVC 181800Z 13007KT CAVOK 15/05 Q1020 NOSIG